<?xml version="1.0" encoding="UTF-8" standalone="no" ?>
<gpx xmlns="http://www.topografix.com/GPX/1/1" xmlns:xsi="http://www.w3.org/2001/XMLSchema-instance" xsi:schemaLocation="http://www.topografix.com/GPX/1/1 http://www.topografix.com/GPX/1/1/gpx.xsd" version="1.1" creator="VisuGPX - https://www.visugpx.com">
  <metadata>
    <name>Moulin de Javon et les Baumes des Eymians et de Roustan</name>
  </metadata>
  <trk>
    <name><![CDATA[Moulin de Javon et les Baumes des Eymians et de Roustan]]></name>
    <extensions>
      <line xmlns="http://www.topografix.com/GPX/gpx_style/0/2">
        <color>0000FF</color>
        <width>4</width>
      </line>
    </extensions>
    <trkseg>
      <trkpt lat="43.96443" lon="5.33433">
        <ele>424</ele>
        <time>2017-09-01T11:05:22+02:00</time>
      </trkpt>
      <trkpt lat="43.96464" lon="5.33435">
        <ele>428</ele>
        <time>2017-09-01T11:05:22+02:00</time>
      </trkpt>
      <trkpt lat="43.96506" lon="5.3346">
        <ele>432</ele>
        <time>2017-09-01T11:05:22+02:00</time>
      </trkpt>
      <trkpt lat="43.96517" lon="5.33469">
        <ele>433</ele>
        <time>2017-09-01T11:05:22+02:00</time>
      </trkpt>
      <trkpt lat="43.96534" lon="5.33477">
        <ele>436</ele>
        <time>2017-09-01T11:06:45+02:00</time>
      </trkpt>
      <trkpt lat="43.96555" lon="5.33485">
        <ele>440</ele>
        <time>2017-09-01T11:06:45+02:00</time>
      </trkpt>
      <trkpt lat="43.96571" lon="5.33493">
        <ele>444</ele>
        <time>2017-09-01T11:07:21+02:00</time>
      </trkpt>
      <trkpt lat="43.96589" lon="5.33497">
        <ele>448</ele>
        <time>2017-09-01T11:07:40+02:00</time>
      </trkpt>
      <trkpt lat="43.96607" lon="5.33506">
        <ele>452</ele>
        <time>2017-09-01T11:08:04+02:00</time>
      </trkpt>
      <trkpt lat="43.96625" lon="5.33519">
        <ele>455</ele>
        <time>2017-09-01T11:08:38+02:00</time>
      </trkpt>
      <trkpt lat="43.96641" lon="5.33538">
        <ele>458</ele>
      </trkpt>
      <trkpt lat="43.9666" lon="5.33553">
        <ele>464</ele>
      </trkpt>
      <trkpt lat="43.96669" lon="5.3357">
        <ele>466</ele>
        <time>2017-09-01T11:10:12+02:00</time>
      </trkpt>
      <trkpt lat="43.96683" lon="5.33587">
        <ele>468</ele>
        <time>2017-09-01T11:10:32+02:00</time>
      </trkpt>
      <trkpt lat="43.96699" lon="5.33603">
        <ele>470</ele>
        <time>2017-09-01T11:10:52+02:00</time>
      </trkpt>
      <trkpt lat="43.96718" lon="5.33611">
        <ele>473</ele>
        <time>2017-09-01T11:11:08+02:00</time>
      </trkpt>
      <trkpt lat="43.96734" lon="5.33596">
        <ele>479</ele>
        <time>2017-09-01T11:11:48+02:00</time>
      </trkpt>
      <trkpt lat="43.96756" lon="5.3359">
        <ele>484</ele>
        <time>2017-09-01T11:12:12+02:00</time>
      </trkpt>
      <trkpt lat="43.96778" lon="5.33587">
        <ele>488</ele>
        <time>2017-09-01T11:12:45+02:00</time>
      </trkpt>
      <trkpt lat="43.96795" lon="5.33573">
        <ele>492</ele>
        <time>2017-09-01T11:13:29+02:00</time>
      </trkpt>
      <trkpt lat="43.96815" lon="5.33575">
        <ele>495</ele>
        <time>2017-09-01T11:13:48+02:00</time>
      </trkpt>
      <trkpt lat="43.96832" lon="5.33565">
        <ele>498</ele>
        <time>2017-09-01T11:14:29+02:00</time>
      </trkpt>
      <trkpt lat="43.96848" lon="5.33554">
        <ele>502</ele>
        <time>2017-09-01T11:15:04+02:00</time>
      </trkpt>
      <trkpt lat="43.96859" lon="5.33538">
        <ele>506</ele>
        <time>2017-09-01T11:15:52+02:00</time>
      </trkpt>
      <trkpt lat="43.96861" lon="5.3351">
        <ele>510</ele>
        <time>2017-09-01T11:15:52+02:00</time>
      </trkpt>
      <trkpt lat="43.96852" lon="5.33481">
        <ele>512</ele>
        <time>2017-09-01T11:16:08+02:00</time>
      </trkpt>
      <trkpt lat="43.96854" lon="5.33452">
        <ele>514</ele>
        <time>2017-09-01T11:16:42+02:00</time>
      </trkpt>
      <trkpt lat="43.96874" lon="5.33438">
        <ele>520</ele>
        <time>2017-09-01T11:17:16+02:00</time>
      </trkpt>
      <trkpt lat="43.96886" lon="5.33416">
        <ele>525</ele>
        <time>2017-09-01T11:17:52+02:00</time>
      </trkpt>
      <trkpt lat="43.96906" lon="5.3341">
        <ele>530</ele>
        <time>2017-09-01T11:18:37+02:00</time>
      </trkpt>
      <trkpt lat="43.96923" lon="5.33392">
        <ele>535</ele>
        <time>2017-09-01T11:18:56+02:00</time>
      </trkpt>
      <trkpt lat="43.9693" lon="5.33366">
        <ele>538</ele>
        <time>2017-09-01T11:19:10+02:00</time>
      </trkpt>
      <trkpt lat="43.96947" lon="5.33355">
        <ele>543</ele>
        <time>2017-09-01T11:20:04+02:00</time>
      </trkpt>
      <trkpt lat="43.96969" lon="5.3336">
        <ele>548</ele>
      </trkpt>
      <trkpt lat="43.96983" lon="5.33344">
        <ele>552</ele>
      </trkpt>
      <trkpt lat="43.96995" lon="5.33338">
        <ele>555</ele>
        <time>2017-09-01T11:21:57+02:00</time>
      </trkpt>
      <trkpt lat="43.9702" lon="5.33358">
        <ele>559</ele>
        <time>2017-09-01T11:21:57+02:00</time>
      </trkpt>
      <trkpt lat="43.97039" lon="5.33373">
        <ele>561</ele>
        <time>2017-09-01T11:22:24+02:00</time>
      </trkpt>
      <trkpt lat="43.97056" lon="5.3339">
        <ele>563</ele>
        <time>2017-09-01T11:22:39+02:00</time>
      </trkpt>
      <trkpt lat="43.97071" lon="5.33408">
        <ele>565</ele>
        <time>2017-09-01T11:22:56+02:00</time>
      </trkpt>
      <trkpt lat="43.97085" lon="5.33427">
        <ele>566</ele>
        <time>2017-09-01T11:23:30+02:00</time>
      </trkpt>
      <trkpt lat="43.97096" lon="5.33442">
        <ele>566</ele>
        <time>2017-09-01T11:23:30+02:00</time>
      </trkpt>
      <trkpt lat="43.97118" lon="5.33459">
        <ele>567</ele>
        <time>2017-09-01T11:24:26+02:00</time>
      </trkpt>
      <trkpt lat="43.97138" lon="5.33474">
        <ele>570</ele>
        <time>2017-09-01T11:24:42+02:00</time>
      </trkpt>
      <trkpt lat="43.97158" lon="5.33485">
        <ele>573</ele>
        <time>2017-09-01T11:25:00+02:00</time>
      </trkpt>
      <trkpt lat="43.9717" lon="5.33494">
        <ele>575</ele>
      </trkpt>
      <trkpt lat="43.97179" lon="5.33499">
        <ele>576</ele>
        <time>2017-09-01T11:25:44+02:00</time>
      </trkpt>
      <trkpt lat="43.97174" lon="5.33529">
        <ele>576</ele>
        <time>2017-09-01T11:26:00+02:00</time>
      </trkpt>
      <trkpt lat="43.97167" lon="5.33546">
        <ele>575</ele>
        <time>2017-09-01T11:26:17+02:00</time>
      </trkpt>
      <trkpt lat="43.97158" lon="5.33573">
        <ele>573</ele>
        <time>2017-09-01T11:26:51+02:00</time>
      </trkpt>
      <trkpt lat="43.97152" lon="5.336">
        <ele>571</ele>
        <time>2017-09-01T11:27:12+02:00</time>
      </trkpt>
      <trkpt lat="43.97152" lon="5.33628">
        <ele>570</ele>
        <time>2017-09-01T11:27:46+02:00</time>
      </trkpt>
      <trkpt lat="43.97155" lon="5.33659">
        <ele>570</ele>
        <time>2017-09-01T11:28:06+02:00</time>
      </trkpt>
      <trkpt lat="43.97159" lon="5.33686">
        <ele>566.8</ele>
      </trkpt>
      <trkpt lat="43.97166" lon="5.33695">
        <ele>566.7</ele>
      </trkpt>
      <trkpt lat="43.97161" lon="5.33714">
        <ele>561.8</ele>
      </trkpt>
      <trkpt lat="43.97164" lon="5.33748">
        <ele>547.4</ele>
      </trkpt>
      <trkpt lat="43.97167" lon="5.33768">
        <ele>541.4</ele>
      </trkpt>
      <trkpt lat="43.97167" lon="5.3381">
        <ele>544.2</ele>
      </trkpt>
      <trkpt lat="43.97171" lon="5.33862">
        <ele>554.5</ele>
      </trkpt>
      <trkpt lat="43.97169" lon="5.33892">
        <ele>546.7</ele>
      </trkpt>
      <trkpt lat="43.97176" lon="5.33903">
        <ele>546.9</ele>
      </trkpt>
      <trkpt lat="43.97193" lon="5.33946">
        <ele>542.8</ele>
      </trkpt>
      <trkpt lat="43.97202" lon="5.33964">
        <ele>537.2</ele>
      </trkpt>
      <trkpt lat="43.97211" lon="5.33973">
        <ele>539.3</ele>
      </trkpt>
      <trkpt lat="43.97216" lon="5.33983">
        <ele>540.3</ele>
      </trkpt>
      <trkpt lat="43.97229" lon="5.33997">
        <ele>545.4</ele>
      </trkpt>
      <trkpt lat="43.97217" lon="5.33996">
        <ele>535.4</ele>
      </trkpt>
      <trkpt lat="43.97211" lon="5.33988">
        <ele>533.3</ele>
      </trkpt>
      <trkpt lat="43.97204" lon="5.34008">
        <ele>523.2</ele>
      </trkpt>
      <trkpt lat="43.97199" lon="5.34023">
        <ele>518.7</ele>
      </trkpt>
      <trkpt lat="43.97201" lon="5.34042">
        <ele>528.1</ele>
      </trkpt>
      <trkpt lat="43.97215" lon="5.3406">
        <ele>555.7</ele>
      </trkpt>
      <trkpt lat="43.97194" lon="5.34057">
        <ele>524.3</ele>
        <time>2017-09-01T11:28:22+02:00</time>
      </trkpt>
      <trkpt lat="43.97193" lon="5.34057">
        <ele>523.1</ele>
      </trkpt>
    </trkseg>
  </trk>
</gpx>